sensor_id;sensor_type;location;lat;lon;timestamp;P1;durP1;ratioP1;P2;durP2;ratioP2
62679;SDS011;48746;55.578;37.902;2022-11-23T00:01:25;7.53;;;5.50;;
62679;SDS011;48746;55.578;37.902;2022-11-23T00:03:53;11.52;;;6.43;;
62679;SDS011;48746;55.578;37.902;2022-11-23T00:06:21;9.65;;;6.85;;
62679;SDS011;48746;55.578;37.902;2022-11-23T00:11:56;8.35;;;3.95;;
62679;SDS011;48746;55.578;37.902;2022-11-23T00:14:22;11.70;;;5.63;;
62679;SDS011;48746;55.578;37.902;2022-11-23T00:16:48;13.75;;;4.80;;
62679;SDS011;48746;55.578;37.902;2022-11-23T00:19:14;7.72;;;4.15;;
62679;SDS011;48746;55.578;37.902;2022-11-23T00:21:40;8.65;;;4.80;;
62679;SDS011;48746;55.578;37.902;2022-11-23T00:24:09;8.50;;;5.22;;
62679;SDS011;48746;55.578;37.902;2022-11-23T00:26:37;11.90;;;6.70;;
62679;SDS011;48746;55.578;37.902;2022-11-23T00:29:03;7.07;;;5.45;;
62679;SDS011;48746;55.578;37.902;2022-11-23T00:31:31;9.48;;;5.40;;
62679;SDS011;48746;55.578;37.902;2022-11-23T00:33:58;9.57;;;4.80;;
62679;SDS011;48746;55.578;37.902;2022-11-23T00:36:24;10.38;;;6.40;;
62679;SDS011;48746;55.578;37.902;2022-11-23T00:41:58;7.88;;;4.65;;
62679;SDS011;48746;55.578;37.902;2022-11-23T00:44:24;6.88;;;3.95;;
62679;SDS011;48746;55.578;37.902;2022-11-23T00:46:51;3.80;;;2.38;;
62679;SDS011;48746;55.578;37.902;2022-11-23T00:49:17;3.85;;;2.10;;
62679;SDS011;48746;55.578;37.902;2022-11-23T00:51:43;2.47;;;2.00;;
62679;SDS011;48746;55.578;37.902;2022-11-23T00:54:11;2.90;;;2.05;;
62679;SDS011;48746;55.578;37.902;2022-11-23T00:56:38;3.35;;;2.30;;
62679;SDS011;48746;55.578;37.902;2022-11-23T00:59:03;3.78;;;2.33;;
62679;SDS011;48746;55.578;37.902;2022-11-23T01:01:33;4.78;;;2.40;;
62679;SDS011;48746;55.578;37.902;2022-11-23T01:04:02;2.85;;;1.60;;
62679;SDS011;48746;55.578;37.902;2022-11-23T01:06:32;2.47;;;1.75;;
62679;SDS011;48746;55.578;37.902;2022-11-23T01:09:01;2.33;;;1.77;;
62679;SDS011;48746;55.578;37.902;2022-11-23T01:11:30;2.40;;;1.65;;
62679;SDS011;48746;55.578;37.902;2022-11-23T01:13:59;2.60;;;1.70;;
62679;SDS011;48746;55.578;37.902;2022-11-23T01:16:30;2.80;;;1.50;;
62679;SDS011;48746;55.578;37.902;2022-11-23T01:19:02;3.00;;;1.95;;
62679;SDS011;48746;55.578;37.902;2022-11-23T01:21:30;3.08;;;1.77;;
62679;SDS011;48746;55.578;37.902;2022-11-23T01:23:58;2.85;;;1.92;;
62679;SDS011;48746;55.578;37.902;2022-11-23T01:26:24;2.60;;;1.80;;
62679;SDS011;48746;55.578;37.902;2022-11-23T01:28:52;3.63;;;2.45;;
62679;SDS011;48746;55.578;37.902;2022-11-23T01:31:23;3.33;;;2.20;;
62679;SDS011;48746;55.578;37.902;2022-11-23T01:33:53;4.90;;;2.15;;
62679;SDS011;48746;55.578;37.902;2022-11-23T01:36:24;6.60;;;2.70;;
62679;SDS011;48746;55.578;37.902;2022-11-23T01:41:58;7.15;;;3.70;;
62679;SDS011;48746;55.578;37.902;2022-11-23T01:46:57;4.90;;;3.40;;
62679;SDS011;48746;55.578;37.902;2022-11-23T01:49:29;7.85;;;5.00;;
62679;SDS011;48746;55.578;37.902;2022-11-23T01:52:16;4.03;;;2.80;;
62679;SDS011;48746;55.578;37.902;2022-11-23T01:54:46;8.85;;;4.68;;
62679;SDS011;48746;55.578;37.902;2022-11-23T02:00:15;2.95;;;2.10;;
62679;SDS011;48746;55.578;37.902;2022-11-23T02:02:44;8.35;;;4.22;;
62679;SDS011;48746;55.578;37.902;2022-11-23T02:05:15;3.10;;;2.30;;
62679;SDS011;48746;55.578;37.902;2022-11-23T02:07:46;6.65;;;3.20;;
62679;SDS011;48746;55.578;37.902;2022-11-23T02:10:13;3.45;;;2.30;;
62679;SDS011;48746;55.578;37.902;2022-11-23T02:12:40;5.05;;;2.58;;
62679;SDS011;48746;55.578;37.902;2022-11-23T02:15:06;3.60;;;1.98;;
62679;SDS011;48746;55.578;37.902;2022-11-23T02:20:42;4.00;;;1.90;;
62679;SDS011;48746;55.578;37.902;2022-11-23T02:26:10;3.60;;;1.90;;
62679;SDS011;48746;55.578;37.902;2022-11-23T02:31:49;5.95;;;2.17;;
62679;SDS011;48746;55.578;37.902;2022-11-23T02:34:16;5.30;;;2.47;;
62679;SDS011;48746;55.578;37.902;2022-11-23T02:36:46;4.28;;;2.67;;
62679;SDS011;48746;55.578;37.902;2022-11-23T02:39:19;5.70;;;2.33;;
62679;SDS011;48746;55.578;37.902;2022-11-23T02:41:52;2.53;;;2.33;;
62679;SDS011;48746;55.578;37.902;2022-11-23T02:44:30;4.88;;;2.63;;
62679;SDS011;48746;55.578;37.902;2022-11-23T02:46:59;8.00;;;2.75;;
62679;SDS011;48746;55.578;37.902;2022-11-23T02:49:25;7.75;;;2.53;;
62679;SDS011;48746;55.578;37.902;2022-11-23T02:51:51;4.03;;;2.83;;
62679;SDS011;48746;55.578;37.902;2022-11-23T02:54:17;7.80;;;2.92;;
62679;SDS011;48746;55.578;37.902;2022-11-23T02:56:44;3.38;;;2.45;;
62679;SDS011;48746;55.578;37.902;2022-11-23T02:59:12;3.45;;;2.22;;
62679;SDS011;48746;55.578;37.902;2022-11-23T03:01:41;3.70;;;2.22;;
62679;SDS011;48746;55.578;37.902;2022-11-23T03:04:07;2.20;;;2.00;;
62679;SDS011;48746;55.578;37.902;2022-11-23T03:06:34;4.47;;;2.40;;
62679;SDS011;48746;55.578;37.902;2022-11-23T03:09:01;2.38;;;1.70;;
62679;SDS011;48746;55.578;37.902;2022-11-23T03:11:27;4.10;;;2.60;;
62679;SDS011;48746;55.578;37.902;2022-11-23T03:13:54;3.25;;;1.95;;
62679;SDS011;48746;55.578;37.902;2022-11-23T03:16:21;3.63;;;2.25;;
62679;SDS011;48746;55.578;37.902;2022-11-23T03:18:47;3.20;;;1.98;;
62679;SDS011;48746;55.578;37.902;2022-11-23T03:21:14;4.53;;;2.13;;
62679;SDS011;48746;55.578;37.902;2022-11-23T03:23:40;4.15;;;2.13;;
62679;SDS011;48746;55.578;37.902;2022-11-23T03:26:08;2.60;;;1.88;;
62679;SDS011;48746;55.578;37.902;2022-11-23T03:28:43;2.75;;;1.85;;
62679;SDS011;48746;55.578;37.902;2022-11-23T03:31:12;2.88;;;1.70;;
62679;SDS011;48746;55.578;37.902;2022-11-23T03:33:38;2.00;;;1.75;;
62679;SDS011;48746;55.578;37.902;2022-11-23T03:36:04;2.83;;;1.80;;
62679;SDS011;48746;55.578;37.902;2022-11-23T03:38:37;2.50;;;1.90;;
62679;SDS011;48746;55.578;37.902;2022-11-23T03:41:10;3.80;;;2.08;;
62679;SDS011;48746;55.578;37.902;2022-11-23T03:43:47;3.20;;;2.30;;
62679;SDS011;48746;55.578;37.902;2022-11-23T03:46:13;5.90;;;3.25;;
62679;SDS011;48746;55.578;37.902;2022-11-23T03:48:39;6.40;;;3.92;;
62679;SDS011;48746;55.578;37.902;2022-11-23T03:51:06;8.07;;;3.88;;
62679;SDS011;48746;55.578;37.902;2022-11-23T03:53:32;8.23;;;4.95;;
62679;SDS011;48746;55.578;37.902;2022-11-23T03:55:58;8.02;;;5.10;;
62679;SDS011;48746;55.578;37.902;2022-11-23T03:58:30;9.07;;;5.40;;
62679;SDS011;48746;55.578;37.902;2022-11-23T04:00:57;11.95;;;6.70;;
62679;SDS011;48746;55.578;37.902;2022-11-23T04:03:24;10.27;;;6.45;;
62679;SDS011;48746;55.578;37.902;2022-11-23T04:06:13;11.77;;;6.45;;
62679;SDS011;48746;55.578;37.902;2022-11-23T04:09:02;10.82;;;6.72;;
62679;SDS011;48746;55.578;37.902;2022-11-23T04:11:45;12.73;;;6.35;;
62679;SDS011;48746;55.578;37.902;2022-11-23T04:14:12;11.25;;;5.80;;
62679;SDS011;48746;55.578;37.902;2022-11-23T04:16:38;8.52;;;4.97;;
62679;SDS011;48746;55.578;37.902;2022-11-23T04:19:04;7.75;;;4.90;;
62679;SDS011;48746;55.578;37.902;2022-11-23T04:21:31;9.50;;;5.45;;
62679;SDS011;48746;55.578;37.902;2022-11-23T04:23:57;8.07;;;4.60;;
62679;SDS011;48746;55.578;37.902;2022-11-23T04:26:25;5.35;;;3.30;;
62679;SDS011;48746;55.578;37.902;2022-11-23T04:28:51;6.65;;;4.30;;
62679;SDS011;48746;55.578;37.902;2022-11-23T04:31:17;5.93;;;3.80;;
62679;SDS011;48746;55.578;37.902;2022-11-23T04:33:53;4.93;;;3.25;;
62679;SDS011;48746;55.578;37.902;2022-11-23T04:36:23;4.35;;;3.30;;
62679;SDS011;48746;55.578;37.902;2022-11-23T04:38:50;5.13;;;3.05;;
62679;SDS011;48746;55.578;37.902;2022-11-23T04:41:20;4.20;;;3.05;;
62679;SDS011;48746;55.578;37.902;2022-11-23T04:43:48;4.82;;;3.35;;
62679;SDS011;48746;55.578;37.902;2022-11-23T04:46:14;7.53;;;3.25;;
62679;SDS011;48746;55.578;37.902;2022-11-23T04:48:42;4.60;;;3.25;;
62679;SDS011;48746;55.578;37.902;2022-11-23T04:51:09;4.10;;;2.90;;
62679;SDS011;48746;55.578;37.902;2022-11-23T04:53:36;5.63;;;3.03;;
62679;SDS011;48746;55.578;37.902;2022-11-23T04:56:03;4.72;;;3.35;;
62679;SDS011;48746;55.578;37.902;2022-11-23T05:01:04;4.82;;;2.53;;
62679;SDS011;48746;55.578;37.902;2022-11-23T05:03:35;3.80;;;2.70;;
62679;SDS011;48746;55.578;37.902;2022-11-23T05:06:05;4.23;;;3.03;;
62679;SDS011;48746;55.578;37.902;2022-11-23T05:08:37;4.68;;;3.15;;
62679;SDS011;48746;55.578;37.902;2022-11-23T05:11:33;5.57;;;3.03;;
62679;SDS011;48746;55.578;37.902;2022-11-23T05:14:00;5.75;;;3.28;;
62679;SDS011;48746;55.578;37.902;2022-11-23T05:16:28;4.85;;;3.25;;
62679;SDS011;48746;55.578;37.902;2022-11-23T05:18:56;4.78;;;2.92;;
62679;SDS011;48746;55.578;37.902;2022-11-23T05:21:23;3.83;;;3.15;;
62679;SDS011;48746;55.578;37.902;2022-11-23T05:23:51;4.55;;;3.17;;
62679;SDS011;48746;55.578;37.902;2022-11-23T05:26:18;3.63;;;2.67;;
62679;SDS011;48746;55.578;37.902;2022-11-23T05:28:44;5.68;;;3.30;;
62679;SDS011;48746;55.578;37.902;2022-11-23T05:31:13;4.30;;;2.85;;
62679;SDS011;48746;55.578;37.902;2022-11-23T05:33:41;5.25;;;2.97;;
62679;SDS011;48746;55.578;37.902;2022-11-23T05:36:08;6.40;;;3.40;;
62679;SDS011;48746;55.578;37.902;2022-11-23T05:38:37;4.93;;;3.22;;
62679;SDS011;48746;55.578;37.902;2022-11-23T05:41:09;6.00;;;3.63;;
62679;SDS011;48746;55.578;37.902;2022-11-23T05:43:38;5.72;;;3.65;;
62679;SDS011;48746;55.578;37.902;2022-11-23T05:46:06;7.65;;;3.70;;
62679;SDS011;48746;55.578;37.902;2022-11-23T05:52:02;6.97;;;3.60;;
62679;SDS011;48746;55.578;37.902;2022-11-23T05:54:29;6.10;;;3.65;;
62679;SDS011;48746;55.578;37.902;2022-11-23T06:00:15;5.43;;;2.97;;
62679;SDS011;48746;55.578;37.902;2022-11-23T06:02:58;8.85;;;4.18;;
62679;SDS011;48746;55.578;37.902;2022-11-23T06:05:27;7.93;;;4.60;;
62679;SDS011;48746;55.578;37.902;2022-11-23T06:11:01;8.55;;;4.95;;
62679;SDS011;48746;55.578;37.902;2022-11-23T06:13:28;8.77;;;5.03;;
62679;SDS011;48746;55.578;37.902;2022-11-23T06:15:54;9.43;;;5.03;;
62679;SDS011;48746;55.578;37.902;2022-11-23T06:21:38;9.18;;;5.10;;
62679;SDS011;48746;55.578;37.902;2022-11-23T06:24:05;9.75;;;4.97;;
62679;SDS011;48746;55.578;37.902;2022-11-23T06:26:32;10.90;;;5.10;;
62679;SDS011;48746;55.578;37.902;2022-11-23T06:28:58;9.25;;;5.32;;
62679;SDS011;48746;55.578;37.902;2022-11-23T06:31:24;9.57;;;5.38;;
62679;SDS011;48746;55.578;37.902;2022-11-23T06:33:51;9.60;;;5.47;;
62679;SDS011;48746;55.578;37.902;2022-11-23T06:36:17;13.57;;;5.30;;
62679;SDS011;48746;55.578;37.902;2022-11-23T06:38:46;9.50;;;5.15;;
62679;SDS011;48746;55.578;37.902;2022-11-23T06:41:17;20.80;;;5.87;;
62679;SDS011;48746;55.578;37.902;2022-11-23T06:43:45;10.07;;;5.25;;
62679;SDS011;48746;55.578;37.902;2022-11-23T06:46:18;9.95;;;6.40;;
62679;SDS011;48746;55.578;37.902;2022-11-23T06:48:49;11.15;;;6.22;;
62679;SDS011;48746;55.578;37.902;2022-11-23T06:51:15;14.63;;;6.15;;
62679;SDS011;48746;55.578;37.902;2022-11-23T06:53:43;13.02;;;5.75;;
62679;SDS011;48746;55.578;37.902;2022-11-23T06:56:11;21.20;;;7.38;;
62679;SDS011;48746;55.578;37.902;2022-11-23T06:58:37;13.65;;;6.97;;
62679;SDS011;48746;55.578;37.902;2022-11-23T07:01:08;12.25;;;7.13;;
62679;SDS011;48746;55.578;37.902;2022-11-23T07:03:43;16.88;;;7.32;;
62679;SDS011;48746;55.578;37.902;2022-11-23T07:06:23;14.23;;;7.20;;
62679;SDS011;48746;55.578;37.902;2022-11-23T07:08:53;14.82;;;8.00;;
62679;SDS011;48746;55.578;37.902;2022-11-23T07:11:46;12.93;;;7.72;;
62679;SDS011;48746;55.578;37.902;2022-11-23T07:14:14;11.57;;;6.78;;
62679;SDS011;48746;55.578;37.902;2022-11-23T07:16:44;14.93;;;7.53;;
62679;SDS011;48746;55.578;37.902;2022-11-23T07:19:10;13.98;;;6.93;;
62679;SDS011;48746;55.578;37.902;2022-11-23T07:21:36;14.02;;;6.70;;
62679;SDS011;48746;55.578;37.902;2022-11-23T07:24:03;14.93;;;7.82;;
62679;SDS011;48746;55.578;37.902;2022-11-23T07:26:29;13.52;;;7.38;;
62679;SDS011;48746;55.578;37.902;2022-11-23T07:28:55;16.75;;;6.50;;
62679;SDS011;48746;55.578;37.902;2022-11-23T07:31:22;14.20;;;6.65;;
62679;SDS011;48746;55.578;37.902;2022-11-23T07:33:48;13.70;;;6.53;;
62679;SDS011;48746;55.578;37.902;2022-11-23T07:36:15;11.45;;;6.15;;
62679;SDS011;48746;55.578;37.902;2022-11-23T07:38:43;11.65;;;6.13;;
62679;SDS011;48746;55.578;37.902;2022-11-23T07:41:12;13.23;;;6.50;;
62679;SDS011;48746;55.578;37.902;2022-11-23T07:46:39;9.88;;;5.57;;
62679;SDS011;48746;55.578;37.902;2022-11-23T07:49:05;9.05;;;5.25;;
62679;SDS011;48746;55.578;37.902;2022-11-23T07:51:31;10.05;;;6.35;;
62679;SDS011;48746;55.578;37.902;2022-11-23T07:53:58;10.50;;;5.50;;
62679;SDS011;48746;55.578;37.902;2022-11-23T07:56:24;9.05;;;5.65;;
62679;SDS011;48746;55.578;37.902;2022-11-23T07:58:50;12.15;;;5.95;;
62679;SDS011;48746;55.578;37.902;2022-11-23T08:01:16;11.52;;;6.40;;
62679;SDS011;48746;55.578;37.902;2022-11-23T08:03:44;10.48;;;5.75;;
62679;SDS011;48746;55.578;37.902;2022-11-23T08:06:11;9.15;;;5.00;;
62679;SDS011;48746;55.578;37.902;2022-11-23T08:08:38;9.05;;;5.05;;
62679;SDS011;48746;55.578;37.902;2022-11-23T08:11:05;14.77;;;5.63;;
62679;SDS011;48746;55.578;37.902;2022-11-23T08:13:32;18.65;;;5.85;;
62679;SDS011;48746;55.578;37.902;2022-11-23T08:16:02;10.38;;;5.68;;
62679;SDS011;48746;55.578;37.902;2022-11-23T08:21:34;13.98;;;5.43;;
62679;SDS011;48746;55.578;37.902;2022-11-23T08:24:02;13.10;;;6.05;;
62679;SDS011;48746;55.578;37.902;2022-11-23T08:26:28;12.48;;;5.57;;
62679;SDS011;48746;55.578;37.902;2022-11-23T08:28:54;13.98;;;5.28;;
62679;SDS011;48746;55.578;37.902;2022-11-23T08:31:22;22.92;;;5.28;;
62679;SDS011;48746;55.578;37.902;2022-11-23T08:33:48;27.33;;;6.45;;
62679;SDS011;48746;55.578;37.902;2022-11-23T08:36:14;10.75;;;5.72;;
62679;SDS011;48746;55.578;37.902;2022-11-23T08:38:40;11.48;;;6.07;;
62679;SDS011;48746;55.578;37.902;2022-11-23T08:41:06;10.68;;;5.30;;
62679;SDS011;48746;55.578;37.902;2022-11-23T08:43:33;9.07;;;5.78;;
62679;SDS011;48746;55.578;37.902;2022-11-23T08:45:59;8.30;;;4.75;;
62679;SDS011;48746;55.578;37.902;2022-11-23T08:48:29;11.00;;;6.10;;
62679;SDS011;48746;55.578;37.902;2022-11-23T08:50:57;12.80;;;5.65;;
62679;SDS011;48746;55.578;37.902;2022-11-23T08:53:24;7.93;;;5.30;;
62679;SDS011;48746;55.578;37.902;2022-11-23T08:55:50;6.80;;;4.60;;
62679;SDS011;48746;55.578;37.902;2022-11-23T08:58:19;9.00;;;4.90;;
62679;SDS011;48746;55.578;37.902;2022-11-23T09:00:45;7.32;;;3.80;;
62679;SDS011;48746;55.578;37.902;2022-11-23T09:03:11;5.63;;;3.70;;
62679;SDS011;48746;55.578;37.902;2022-11-23T09:05:37;8.10;;;4.57;;
62679;SDS011;48746;55.578;37.902;2022-11-23T09:08:04;7.93;;;4.10;;
62679;SDS011;48746;55.578;37.902;2022-11-23T09:10:30;8.38;;;4.32;;
62679;SDS011;48746;55.578;37.902;2022-11-23T09:12:57;7.22;;;4.38;;
62679;SDS011;48746;55.578;37.902;2022-11-23T09:15:23;5.50;;;3.53;;
62679;SDS011;48746;55.578;37.902;2022-11-23T09:17:53;4.53;;;3.55;;
62679;SDS011;48746;55.578;37.902;2022-11-23T09:20:19;5.60;;;3.22;;
62679;SDS011;48746;55.578;37.902;2022-11-23T09:22:49;5.15;;;3.25;;
62679;SDS011;48746;55.578;37.902;2022-11-23T09:25:16;9.18;;;4.05;;
62679;SDS011;48746;55.578;37.902;2022-11-23T09:27:47;7.13;;;3.42;;
62679;SDS011;48746;55.578;37.902;2022-11-23T09:30:15;5.97;;;3.88;;
62679;SDS011;48746;55.578;37.902;2022-11-23T09:32:41;5.57;;;3.45;;
62679;SDS011;48746;55.578;37.902;2022-11-23T09:35:08;6.65;;;4.00;;
62679;SDS011;48746;55.578;37.902;2022-11-23T09:40:40;5.65;;;3.83;;
62679;SDS011;48746;55.578;37.902;2022-11-23T09:43:16;6.85;;;3.50;;
62679;SDS011;48746;55.578;37.902;2022-11-23T09:45:48;5.75;;;3.28;;
62679;SDS011;48746;55.578;37.902;2022-11-23T09:51:27;5.15;;;3.35;;
62679;SDS011;48746;55.578;37.902;2022-11-23T09:54:00;8.50;;;3.92;;
62679;SDS011;48746;55.578;37.902;2022-11-23T09:56:32;6.95;;;4.50;;
62679;SDS011;48746;55.578;37.902;2022-11-23T09:58:59;7.55;;;4.40;;
62679;SDS011;48746;55.578;37.902;2022-11-23T10:01:27;10.43;;;4.97;;
62679;SDS011;48746;55.578;37.902;2022-11-23T10:03:55;9.70;;;4.93;;
62679;SDS011;48746;55.578;37.902;2022-11-23T10:06:26;9.57;;;4.75;;
62679;SDS011;48746;55.578;37.902;2022-11-23T10:14:42;8.68;;;4.47;;
62679;SDS011;48746;55.578;37.902;2022-11-23T10:17:28;11.35;;;4.93;;
62679;SDS011;48746;55.578;37.902;2022-11-23T10:23:12;7.07;;;4.18;;
62679;SDS011;48746;55.578;37.902;2022-11-23T10:25:48;9.65;;;4.57;;
62679;SDS011;48746;55.578;37.902;2022-11-23T10:28:20;6.30;;;3.67;;
62679;SDS011;48746;55.578;37.902;2022-11-23T10:30:49;6.93;;;4.03;;
62679;SDS011;48746;55.578;37.902;2022-11-23T10:36:11;6.45;;;3.85;;
62679;SDS011;48746;55.578;37.902;2022-11-23T10:38:41;6.65;;;4.10;;
62679;SDS011;48746;55.578;37.902;2022-11-23T10:41:08;8.80;;;4.57;;
62679;SDS011;48746;55.578;37.902;2022-11-23T10:48:47;11.07;;;5.40;;
62679;SDS011;48746;55.578;37.902;2022-11-23T10:51:29;8.48;;;5.03;;
62679;SDS011;48746;55.578;37.902;2022-11-23T10:53:59;6.47;;;4.32;;
62679;SDS011;48746;55.578;37.902;2022-11-23T10:56:29;8.90;;;5.78;;
62679;SDS011;48746;55.578;37.902;2022-11-23T10:58:56;9.93;;;6.18;;
62679;SDS011;48746;55.578;37.902;2022-11-23T11:01:26;13.48;;;6.60;;
62679;SDS011;48746;55.578;37.902;2022-11-23T11:03:55;12.95;;;7.38;;
62679;SDS011;48746;55.578;37.902;2022-11-23T11:06:25;15.10;;;8.00;;
62679;SDS011;48746;55.578;37.902;2022-11-23T11:09:03;14.07;;;8.38;;
62679;SDS011;48746;55.578;37.902;2022-11-23T11:11:34;11.30;;;7.45;;
62679;SDS011;48746;55.578;37.902;2022-11-23T11:14:04;10.23;;;5.93;;
62679;SDS011;48746;55.578;37.902;2022-11-23T11:16:46;10.43;;;6.78;;
62679;SDS011;48746;55.578;37.902;2022-11-23T11:21:56;11.67;;;6.23;;
62679;SDS011;48746;55.578;37.902;2022-11-23T11:30:06;6.75;;;4.35;;
62679;SDS011;48746;55.578;37.902;2022-11-23T11:33:36;6.47;;;4.65;;
62679;SDS011;48746;55.578;37.902;2022-11-23T11:35:41;7.55;;;4.80;;
62679;SDS011;48746;55.578;37.902;2022-11-23T11:41:15;7.55;;;4.68;;
62679;SDS011;48746;55.578;37.902;2022-11-23T11:43:48;7.05;;;5.18;;
62679;SDS011;48746;55.578;37.902;2022-11-23T11:46:18;12.65;;;6.53;;
62679;SDS011;48746;55.578;37.902;2022-11-23T11:48:53;12.15;;;5.07;;
62679;SDS011;48746;55.578;37.902;2022-11-23T11:51:29;10.80;;;5.30;;
62679;SDS011;48746;55.578;37.902;2022-11-23T11:54:09;9.15;;;6.15;;
62679;SDS011;48746;55.578;37.902;2022-11-23T11:59:10;9.77;;;5.53;;
62679;SDS011;48746;55.578;37.902;2022-11-23T12:01:47;9.77;;;5.78;;
62679;SDS011;48746;55.578;37.902;2022-11-23T12:04:25;6.30;;;4.75;;
62679;SDS011;48746;55.578;37.902;2022-11-23T12:07:21;5.65;;;4.03;;
62679;SDS011;48746;55.578;37.902;2022-11-23T12:10:57;5.88;;;4.05;;
62679;SDS011;48746;55.578;37.902;2022-11-23T12:12:53;6.95;;;4.47;;
62679;SDS011;48746;55.578;37.902;2022-11-23T12:15:23;7.57;;;5.30;;
62679;SDS011;48746;55.578;37.902;2022-11-23T12:21:19;7.70;;;4.82;;
62679;SDS011;48746;55.578;37.902;2022-11-23T12:26:16;9.97;;;6.80;;
62679;SDS011;48746;55.578;37.902;2022-11-23T12:31:44;14.95;;;7.05;;
62679;SDS011;48746;55.578;37.902;2022-11-23T12:40:27;11.07;;;5.90;;
62679;SDS011;48746;55.578;37.902;2022-11-23T12:43:28;8.20;;;5.63;;
62679;SDS011;48746;55.578;37.902;2022-11-23T12:53:57;11.77;;;7.47;;
62679;SDS011;48746;55.578;37.902;2022-11-23T12:57:00;13.43;;;8.48;;
62679;SDS011;48746;55.578;37.902;2022-11-23T12:59:56;15.05;;;8.45;;
62679;SDS011;48746;55.578;37.902;2022-11-23T13:13:58;18.83;;;9.75;;
62679;SDS011;48746;55.578;37.902;2022-11-23T13:16:37;10.77;;;7.72;;
62679;SDS011;48746;55.578;37.902;2022-11-23T13:21:58;14.13;;;8.80;;
62679;SDS011;48746;55.578;37.902;2022-11-23T13:24:29;15.05;;;7.60;;
62679;SDS011;48746;55.578;37.902;2022-11-23T13:30:08;13.55;;;9.15;;
62679;SDS011;48746;55.578;37.902;2022-11-23T13:32:53;12.38;;;6.85;;
62679;SDS011;48746;55.578;37.902;2022-11-23T13:41:02;8.88;;;6.53;;
62679;SDS011;48746;55.578;37.902;2022-11-23T13:43:31;12.30;;;8.80;;
62679;SDS011;48746;55.578;37.902;2022-11-23T13:48:43;14.68;;;10.43;;
62679;SDS011;48746;55.578;37.902;2022-11-23T13:51:10;14.55;;;9.35;;
62679;SDS011;48746;55.578;37.902;2022-11-23T13:53:40;12.65;;;8.52;;
62679;SDS011;48746;55.578;37.902;2022-11-23T13:56:19;15.95;;;9.18;;
62679;SDS011;48746;55.578;37.902;2022-11-23T13:58:50;13.88;;;9.25;;
62679;SDS011;48746;55.578;37.902;2022-11-23T14:04:21;14.05;;;8.57;;
62679;SDS011;48746;55.578;37.902;2022-11-23T14:10:02;12.27;;;8.65;;
62679;SDS011;48746;55.578;37.902;2022-11-23T14:12:33;12.80;;;8.75;;
62679;SDS011;48746;55.578;37.902;2022-11-23T14:15:16;13.68;;;9.00;;
62679;SDS011;48746;55.578;37.902;2022-11-23T14:26:50;10.65;;;7.65;;
62679;SDS011;48746;55.578;37.902;2022-11-23T14:43:33;7.57;;;5.10;;
62679;SDS011;48746;55.578;37.902;2022-11-23T14:46:02;9.48;;;5.22;;
62679;SDS011;48746;55.578;37.902;2022-11-23T14:48:33;9.43;;;5.70;;
62679;SDS011;48746;55.578;37.902;2022-11-23T14:51:04;7.40;;;5.43;;
62679;SDS011;48746;55.578;37.902;2022-11-23T14:53:37;10.23;;;6.55;;
62679;SDS011;48746;55.578;37.902;2022-11-23T14:56:05;9.90;;;6.57;;
62679;SDS011;48746;55.578;37.902;2022-11-23T15:01:39;5.70;;;4.72;;
62679;SDS011;48746;55.578;37.902;2022-11-23T15:04:20;7.28;;;5.13;;
62679;SDS011;48746;55.578;37.902;2022-11-23T15:06:52;5.88;;;5.10;;
62679;SDS011;48746;55.578;37.902;2022-11-23T15:12:20;5.55;;;4.47;;
62679;SDS011;48746;55.578;37.902;2022-11-23T15:14:48;10.98;;;5.03;;
62679;SDS011;48746;55.578;37.902;2022-11-23T15:17:19;5.25;;;4.00;;
62679;SDS011;48746;55.578;37.902;2022-11-23T15:19:53;3.80;;;3.10;;
62679;SDS011;48746;55.578;37.902;2022-11-23T15:22:20;3.47;;;3.08;;
62679;SDS011;48746;55.578;37.902;2022-11-23T15:24:46;3.88;;;3.25;;
62679;SDS011;48746;55.578;37.902;2022-11-23T15:27:19;3.70;;;2.92;;
62679;SDS011;48746;55.578;37.902;2022-11-23T15:29:56;4.60;;;3.25;;
62679;SDS011;48746;55.578;37.902;2022-11-23T15:34:53;6.63;;;4.80;;
62679;SDS011;48746;55.578;37.902;2022-11-23T15:37:24;5.97;;;4.90;;
62679;SDS011;48746;55.578;37.902;2022-11-23T15:39:52;12.18;;;7.65;;
62679;SDS011;48746;55.578;37.902;2022-11-23T15:42:23;9.05;;;5.03;;
62679;SDS011;48746;55.578;37.902;2022-11-23T15:44:50;6.55;;;4.50;;
62679;SDS011;48746;55.578;37.902;2022-11-23T15:47:26;9.48;;;5.53;;
62679;SDS011;48746;55.578;37.902;2022-11-23T15:49:59;8.55;;;5.38;;
62679;SDS011;48746;55.578;37.902;2022-11-23T15:52:31;5.82;;;4.28;;
62679;SDS011;48746;55.578;37.902;2022-11-23T15:55:04;5.18;;;3.90;;
62679;SDS011;48746;55.578;37.902;2022-11-23T15:57:35;5.68;;;3.72;;
62679;SDS011;48746;55.578;37.902;2022-11-23T16:00:03;5.20;;;3.42;;
62679;SDS011;48746;55.578;37.902;2022-11-23T16:02:37;4.20;;;3.45;;
62679;SDS011;48746;55.578;37.902;2022-11-23T16:05:11;5.75;;;4.13;;
62679;SDS011;48746;55.578;37.902;2022-11-23T16:10:53;5.07;;;3.60;;
62679;SDS011;48746;55.578;37.902;2022-11-23T16:13:36;4.45;;;3.60;;
62679;SDS011;48746;55.578;37.902;2022-11-23T16:16:05;4.15;;;3.08;;
62679;SDS011;48746;55.578;37.902;2022-11-23T16:18:34;4.13;;;3.40;;
62679;SDS011;48746;55.578;37.902;2022-11-23T16:21:00;5.70;;;4.10;;
62679;SDS011;48746;55.578;37.902;2022-11-23T16:23:40;4.97;;;3.85;;
62679;SDS011;48746;55.578;37.902;2022-11-23T16:26:09;5.85;;;3.75;;
62679;SDS011;48746;55.578;37.902;2022-11-23T16:28:39;6.65;;;4.38;;
62679;SDS011;48746;55.578;37.902;2022-11-23T16:31:27;6.00;;;4.25;;
62679;SDS011;48746;55.578;37.902;2022-11-23T16:33:54;5.97;;;4.28;;
62679;SDS011;48746;55.578;37.902;2022-11-23T16:36:21;5.82;;;3.88;;
62679;SDS011;48746;55.578;37.902;2022-11-23T16:38:47;8.93;;;5.22;;
62679;SDS011;48746;55.578;37.902;2022-11-23T16:41:13;8.02;;;5.65;;
62679;SDS011;48746;55.578;37.902;2022-11-23T16:43:39;7.95;;;4.63;;
62679;SDS011;48746;55.578;37.902;2022-11-23T16:46:07;7.95;;;5.38;;
62679;SDS011;48746;55.578;37.902;2022-11-23T16:48:35;6.03;;;4.80;;
62679;SDS011;48746;55.578;37.902;2022-11-23T16:51:05;11.90;;;7.15;;
62679;SDS011;48746;55.578;37.902;2022-11-23T16:53:35;7.78;;;5.50;;
62679;SDS011;48746;55.578;37.902;2022-11-23T16:56:02;8.98;;;6.07;;
62679;SDS011;48746;55.578;37.902;2022-11-23T16:58:33;10.13;;;6.47;;
62679;SDS011;48746;55.578;37.902;2022-11-23T17:01:00;9.00;;;6.78;;
62679;SDS011;48746;55.578;37.902;2022-11-23T17:03:27;8.52;;;6.60;;
62679;SDS011;48746;55.578;37.902;2022-11-23T17:05:53;8.65;;;6.82;;
62679;SDS011;48746;55.578;37.902;2022-11-23T17:08:19;9.50;;;6.15;;
62679;SDS011;48746;55.578;37.902;2022-11-23T17:10:46;9.43;;;6.45;;
62679;SDS011;48746;55.578;37.902;2022-11-23T17:13:20;11.32;;;7.93;;
62679;SDS011;48746;55.578;37.902;2022-11-23T17:15:49;10.90;;;7.28;;
62679;SDS011;48746;55.578;37.902;2022-11-23T17:18:15;11.27;;;6.38;;
62679;SDS011;48746;55.578;37.902;2022-11-23T17:20:42;9.38;;;6.97;;
62679;SDS011;48746;55.578;37.902;2022-11-23T17:23:08;6.95;;;4.55;;
62679;SDS011;48746;55.578;37.902;2022-11-23T17:25:35;10.38;;;6.05;;
62679;SDS011;48746;55.578;37.902;2022-11-23T17:31:08;7.28;;;5.25;;
62679;SDS011;48746;55.578;37.902;2022-11-23T17:33:35;10.02;;;6.38;;
62679;SDS011;48746;55.578;37.902;2022-11-23T17:36:02;10.77;;;6.30;;
62679;SDS011;48746;55.578;37.902;2022-11-23T17:38:28;8.68;;;5.53;;
62679;SDS011;48746;55.578;37.902;2022-11-23T17:40:55;7.07;;;5.22;;
62679;SDS011;48746;55.578;37.902;2022-11-23T17:43:21;10.05;;;6.07;;